Hauptseite
METAR-TAF:

METAR-TAF

Flughäfen :

Fliegerhorst Holzdorf

Holzdorf, Deutschland

Breite: 51-46N, Länge: 013-11E, Höhe: 79 m

Beobachtung

Neuester Wetterbericht von vor 10 Minuten, um 23:20 UTC
Wind 1 kt aus West
Temperatur 12°C
Luftfeuchtigkeit 76%
Luftdruck 1021 hPa
Sichtweite 10 km oder mehr
Leicht bewölkt in der Höhe von 25000 ft

METAR: ETSH 212320Z 26001KT 9999 FEW250 12/08 Q1021 BLU+

Zeit: 01:30 (23:30 UTC)

Prognose

Neuester Wetterbericht von vor 55 Minuten, um 22:35 UTC
Gültige Prognose vom 21 um 17 UTC bis 22 um 02 UTC
Wind 5 kt aus Nord/Nordost
Sichtweite: 2245 m
Leicht bewölkt in der Höhe von 6000 ft

TAF: ETSH 212235Z 2117/2202 02005KT 9999 NSW FEW060 CANCEL 2245

Wetterbeobachtungen und Prognosen von mehr als 4000 Flughäfen (METAR und TAF Bericht).

Die verfügbaren Stationen werden durch gelbe und rote Markierungen auf der Karte dargestellt.

Führen Sie die Maus auf sie, um den Namen der Station zu sehen.

Darauf klicken, um die Beobachtung von Wetterbeobachtungen und Prognosen zu sehen.

Um die Karte zu ändern : klicken Sie auf den grünen Tasten mit einem schwarzen Kreuz Zum Vergrößern, auf den grünen Button mit einem Gedankenstrich zu verkleinern, oder auf die grünen Pfeile für benachbarte Karten.


METAR-TAF: